Time;durP1;ratioP1;P1;durP2;ratioP2;P2;SDS_P1;SDS_P2;PMS_P1;PMS_P2;Temp;Humidity;BMP_temperature;BMP_pressure;BME280_temperature;BME280_humidity;BME280_pressure;Samples;Min_cycle;Max_cycle;Signal;HPM_P1;HPM_P2
2021/05/24 00:00:35;;;;;;;;;;;20.20;76.60;;;;;;5022861;28;83091;-63
2021/05/24 00:03:01;;;;;;;;;;;20.30;76.80;;;;;;5020176;28;83901;-64
2021/05/24 00:05:28;;;;;;;;;;;20.20;76.70;;;;;;5021236;28;83102;-63
2021/05/24 00:07:54;;;;;;;;;;;20.20;76.70;;;;;;5020891;28;82165;-64
2021/05/24 00:10:21;;;;;;;;;;;20.20;76.80;;;;;;5021800;28;82155;-64
2021/05/24 00:12:47;;;;;;;;;;;20.20;76.80;;;;;;5020632;28;82623;-63
2021/05/24 00:15:20;;;;;;;;;;;20.20;76.80;;;;;;5021199;28;81438;-64
2021/05/24 00:17:46;;;;;;;;;;;20.20;76.80;;;;;;5019015;28;83880;-64
2021/05/24 00:20:12;;;;;;;;;;;20.20;76.80;;;;;;5019133;28;84416;-64
2021/05/24 00:22:38;;;;;;;;;;;20.20;76.90;;;;;;5021959;28;83062;-63
2021/05/24 00:25:04;;;;;;;;;;;20.20;76.80;;;;;;5020799;28;82117;-64
2021/05/24 00:27:30;;;;;;;;;;;20.20;76.80;;;;;;5021034;28;82191;-64
2021/05/24 00:29:56;;;;;;;;;;;20.20;76.80;;;;;;5021077;28;82384;-64
2021/05/24 00:32:21;;;;;;;;;;;20.20;76.80;;;;;;5021608;28;84407;-64
2021/05/24 00:34:47;;;;;;;;;;;20.10;76.70;;;;;;5022735;28;82126;-64
2021/05/24 00:37:12;;;;;;;;;;;20.10;76.60;;;;;;5022947;28;82242;-63
2021/05/24 00:39:38;;;;;;;;;;;20.10;76.60;;;;;;5020276;28;82660;-64
2021/05/24 00:42:04;;;;;;;;;;;20.10;76.60;;;;;;5019554;28;82076;-63
2021/05/24 00:44:29;;;;;;;;;;;20.10;76.60;;;;;;5023149;28;83831;-64
2021/05/24 00:46:55;;;;;;;;;;;20.10;76.50;;;;;;5021121;28;83141;-64
2021/05/24 00:49:28;;;;;;;;;;;20.10;76.50;;;;;;5022336;28;82906;-64
2021/05/24 00:51:55;;;;;;;;;;;20.10;76.40;;;;;;5020442;28;84318;-63
2021/05/24 00:54:21;;;;;;;;;;;20.10;76.40;;;;;;5019942;28;82166;-64
2021/05/24 00:56:47;;;;;;;;;;;20.00;76.20;;;;;;5020262;28;82780;-64
2021/05/24 00:59:12;;;;;;;;;;;20.00;76.20;;;;;;5020765;28;83150;-64
2021/05/24 01:01:38;;;;;;;;;;;20.00;76.10;;;;;;5021957;28;82113;-64
2021/05/24 01:04:04;;;;;;;;;;;20.00;76.10;;;;;;5023829;28;82388;-63
2021/05/24 01:06:30;;;;;;;;;;;20.00;76.10;;;;;;5024225;28;84626;-63
2021/05/24 01:08:55;;;;;;;;;;;20.00;76.00;;;;;;5018510;28;83770;-63
2021/05/24 01:11:22;;;;;;;;;;;20.00;76.00;;;;;;5018195;28;84679;-64
2021/05/24 01:13:47;;;;;;;;;;;20.00;75.90;;;;;;5021963;28;83116;-63
2021/05/24 01:16:13;;;;;;;;;;;20.00;75.90;;;;;;5020313;28;83789;-63
2021/05/24 01:18:38;;;;;;;;;;;20.00;75.90;;;;;;5022408;28;83616;-64
2021/05/24 01:21:16;;;;;;;;;;;20.00;75.80;;;;;;5023356;28;82098;-63
2021/05/24 01:23:42;;;;;;;;;;;19.90;75.80;;;;;;5022360;28;82140;-64
2021/05/24 01:26:08;;;;;;;;;;;19.90;75.70;;;;;;5022151;28;84414;-63
2021/05/24 01:28:34;;;;;;;;;;;19.90;75.70;;;;;;5026066;28;81453;-64
2021/05/24 01:31:00;;;;;;;;;;;19.90;75.70;;;;;;5023275;28;84927;-64
2021/05/24 01:33:26;;;;;;;;;;;19.90;75.60;;;;;;5023280;28;82166;-63
2021/05/24 01:35:51;;;;;;;;;;;19.90;75.60;;;;;;5022950;28;83059;-63
2021/05/24 01:38:17;;;;;;;;;;;19.90;75.70;;;;;;5023470;28;82844;-64
2021/05/24 01:40:43;;;;;;;;;;;19.80;75.60;;;;;;5024581;28;82127;-64
2021/05/24 01:43:09;;;;;;;;;;;19.80;75.50;;;;;;5024729;28;82129;-64
2021/05/24 01:45:35;;;;;;;;;;;19.80;75.50;;;;;;5025670;28;82572;-64
2021/05/24 01:48:01;;;;;;;;;;;19.80;75.50;;;;;;5026941;28;82203;-63
2021/05/24 01:50:26;;;;;;;;;;;19.80;75.50;;;;;;5021958;28;84455;-63
2021/05/24 01:52:52;;;;;;;;;;;19.80;75.50;;;;;;5022117;28;81463;-63
2021/05/24 01:55:18;;;;;;;;;;;19.80;75.50;;;;;;5021746;28;82085;-64
2021/05/24 01:57:43;;;;;;;;;;;19.80;75.40;;;;;;5022129;28;82623;-63
2021/05/24 02:00:11;;;;;;;;;;;19.70;75.30;;;;;;5022766;28;83050;-64
2021/05/24 02:02:40;;;;;;;;;;;19.80;75.40;;;;;;5021220;28;84672;-64
2021/05/24 02:05:07;;;;;;;;;;;19.70;75.30;;;;;;5024017;28;84294;-64
2021/05/24 02:07:32;;;;;;;;;;;19.70;75.30;;;;;;5024635;28;82127;-64
2021/05/24 02:09:58;;;;;;;;;;;19.70;75.30;;;;;;5027916;28;83026;-63
2021/05/24 02:12:23;;;;;;;;;;;19.70;75.20;;;;;;5025727;28;82221;-63
2021/05/24 02:14:50;;;;;;;;;;;19.70;75.20;;;;;;5022486;28;82400;-64
2021/05/24 02:17:16;;;;;;;;;;;19.70;75.20;;;;;;5025362;28;83392;-63
2021/05/24 02:19:42;;;;;;;;;;;19.60;75.20;;;;;;5022119;28;82835;-64
2021/05/24 02:22:07;;;;;;;;;;;19.60;75.10;;;;;;5021000;28;82545;-64
2021/05/24 02:24:33;;;;;;;;;;;19.60;75.00;;;;;;5021276;28;84025;-64
2021/05/24 02:26:58;;;;;;;;;;;19.60;75.10;;;;;;5023254;28;82102;-64
2021/05/24 02:29:24;;;;;;;;;;;19.60;75.00;;;;;;5024686;28;82181;-64
2021/05/24 02:31:50;;;;;;;;;;;19.60;75.00;;;;;;5027701;28;83614;-65
2021/05/24 02:34:15;;;;;;;;;;;19.60;75.10;;;;;;5025260;28;82790;-63
2021/05/24 02:36:41;;;;;;;;;;;19.60;75.00;;;;;;5021821;28;83636;-63
2021/05/24 02:39:08;;;;;;;;;;;19.50;75.00;;;;;;5021160;28;82088;-63
2021/05/24 02:41:34;;;;;;;;;;;19.60;75.10;;;;;;5023261;28;83698;-63
2021/05/24 02:44:00;;;;;;;;;;;19.50;75.00;;;;;;5023370;28;83782;-64
2021/05/24 02:46:25;;;;;;;;;;;19.50;75.00;;;;;;5021218;28;83595;-63
2021/05/24 02:48:51;;;;;;;;;;;19.50;75.00;;;;;;5020468;28;83060;-63
2021/05/24 02:51:16;;;;;;;;;;;19.50;74.90;;;;;;5022119;28;82118;-63
2021/05/24 02:53:42;;;;;;;;;;;19.50;74.90;;;;;;5026133;28;82118;-64
2021/05/24 02:56:08;;;;;;;;;;;19.50;74.90;;;;;;5024216;28;84351;-64
2021/05/24 02:58:33;;;;;;;;;;;19.50;74.80;;;;;;5022939;28;82880;-63
2021/05/24 03:00:59;;;;;;;;;;;19.50;74.90;;;;;;5019999;28;82481;-63
2021/05/24 03:03:24;;;;;;;;;;;19.40;74.80;;;;;;5020470;28;84442;-64
2021/05/24 03:05:51;;;;;;;;;;;19.40;74.80;;;;;;5021372;28;81498;-63
2021/05/24 03:08:16;;;;;;;;;;;19.40;74.70;;;;;;5021383;28;82124;-63
2021/05/24 03:10:42;;;;;;;;;;;19.40;74.70;;;;;;5022436;28;83166;-64
2021/05/24 03:13:08;;;;;;;;;;;19.40;74.80;;;;;;5022723;28;83048;-64
2021/05/24 03:15:34;;;;;;;;;;;19.40;74.70;;;;;;5025645;28;82134;-64
2021/05/24 03:18:00;;;;;;;;;;;19.30;74.70;;;;;;5023845;28;82104;-64
2021/05/24 03:20:26;;;;;;;;;;;19.30;74.80;;;;;;5024156;28;83583;-64
2021/05/24 03:22:51;;;;;;;;;;;19.30;74.70;;;;;;5020637;28;84321;-64
2021/05/24 03:25:17;;;;;;;;;;;19.30;74.60;;;;;;5020418;28;82198;-63
2021/05/24 03:27:43;;;;;;;;;;;19.30;74.60;;;;;;5021002;28;82176;-63
2021/05/24 03:30:10;;;;;;;;;;;19.30;74.60;;;;;;5021357;28;83671;-63
2021/05/24 03:32:35;;;;;;;;;;;19.30;74.60;;;;;;5020549;28;82180;-63
2021/05/24 03:35:02;;;;;;;;;;;19.30;74.60;;;;;;5023304;28;82775;-63
2021/05/24 03:37:27;;;;;;;;;;;19.30;74.60;;;;;;5018638;28;83132;-64
2021/05/24 03:39:53;;;;;;;;;;;19.20;74.60;;;;;;5021235;28;83943;-64
2021/05/24 03:42:18;;;;;;;;;;;19.20;74.50;;;;;;5022710;28;82977;-63
2021/05/24 03:44:45;;;;;;;;;;;19.20;74.50;;;;;;5019723;28;84031;-64
2021/05/24 03:47:11;;;;;;;;;;;19.20;74.60;;;;;;5020251;28;83681;-63
2021/05/24 03:49:37;;;;;;;;;;;19.20;74.50;;;;;;5019445;28;83187;-63
2021/05/24 03:52:03;;;;;;;;;;;19.20;74.60;;;;;;5020191;28;82099;-63
2021/05/24 03:54:28;;;;;;;;;;;19.20;74.50;;;;;;5021385;28;84354;-63
2021/05/24 03:56:54;;;;;;;;;;;19.10;74.50;;;;;;5024682;28;85048;-63
2021/05/24 03:59:19;;;;;;;;;;;19.10;74.50;;;;;;5023375;28;83234;-64
2021/05/24 04:01:45;;;;;;;;;;;19.10;74.40;;;;;;5021313;28;85844;-63
2021/05/24 04:04:11;;;;;;;;;;;19.10;74.40;;;;;;5020852;28;83607;-64
2021/05/24 04:06:38;;;;;;;;;;;19.10;74.40;;;;;;5023760;28;84115;-63
2021/05/24 04:09:04;;;;;;;;;;;19.10;74.40;;;;;;5020944;28;84295;-63
2021/05/24 04:11:30;;;;;;;;;;;19.10;74.40;;;;;;5021691;28;82185;-63
2021/05/24 04:13:56;;;;;;;;;;;19.10;74.50;;;;;;5020883;28;84165;-63
2021/05/24 04:16:22;;;;;;;;;;;19.00;74.40;;;;;;5020770;28;84368;-63
2021/05/24 04:18:49;;;;;;;;;;;19.00;74.50;;;;;;5024752;28;81392;-63
2021/05/24 04:21:15;;;;;;;;;;;19.00;74.40;;;;;;5018976;28;84353;-64
2021/05/24 04:23:44;;;;;;;;;;;19.00;74.40;;;;;;5019071;28;82118;-63
2021/05/24 04:26:10;;;;;;;;;;;19.00;74.40;;;;;;5022276;28;83136;-64
2021/05/24 04:28:36;;;;;;;;;;;19.00;74.40;;;;;;5023082;28;83372;-64
2021/05/24 04:31:02;;;;;;;;;;;19.00;74.40;;;;;;5021773;28;83690;-63
2021/05/24 04:33:27;;;;;;;;;;;19.00;74.40;;;;;;5023090;28;83736;-63
2021/05/24 04:35:53;;;;;;;;;;;19.00;74.40;;;;;;5019885;28;83009;-63
2021/05/24 04:38:18;;;;;;;;;;;18.90;74.30;;;;;;5019462;28;82110;-63
2021/05/24 04:40:44;;;;;;;;;;;19.00;74.40;;;;;;5023160;28;82477;-63
2021/05/24 04:43:09;;;;;;;;;;;19.00;74.50;;;;;;5022056;28;81448;-64
2021/05/24 04:45:35;;;;;;;;;;;19.00;75.10;;;;;;5021916;28;82119;-64
2021/05/24 04:48:00;;;;;;;;;;;19.00;74.50;;;;;;5022517;28;84613;-63
2021/05/24 04:50:26;;;;;;;;;;;18.90;74.50;;;;;;5021564;28;84652;-63
2021/05/24 04:52:51;;;;;;;;;;;18.90;74.50;;;;;;5022547;28;83032;-64
2021/05/24 04:55:19;;;;;;;;;;;19.00;74.50;;;;;;5022888;28;82592;-64
2021/05/24 04:57:45;;;;;;;;;;;18.90;74.50;;;;;;5023257;28;83393;-63
2021/05/24 05:00:11;;;;;;;;;;;18.90;74.60;;;;;;5022536;28;84146;-63
2021/05/24 05:02:37;;;;;;;;;;;18.90;74.40;;;;;;5024651;28;84201;-63
2021/05/24 05:05:06;;;;;;;;;;;18.90;74.60;;;;;;5022632;28;83697;-64
2021/05/24 05:07:32;;;;;;;;;;;18.90;74.60;;;;;;5022544;28;83024;-63
2021/05/24 05:09:58;;;;;;;;;;;18.90;74.50;;;;;;5023371;28;82075;-63
2021/05/24 05:12:25;;;;;;;;;;;18.90;74.60;;;;;;5023197;28;83691;-63
2021/05/24 05:14:50;;;;;;;;;;;18.90;74.60;;;;;;5022482;28;82963;-64
2021/05/24 05:17:16;;;;;;;;;;;18.90;74.70;;;;;;5024000;28;82120;-64
2021/05/24 05:19:42;;;;;;;;;;;18.90;74.70;;;;;;5023987;28;84345;-64
2021/05/24 05:22:07;;;;;;;;;;;18.90;74.70;;;;;;5025197;28;82611;-64
2021/05/24 05:24:33;;;;;;;;;;;18.90;74.80;;;;;;5028761;28;82212;-65
2021/05/24 05:26:59;;;;;;;;;;;18.90;74.60;;;;;;5025917;28;84375;-64
2021/05/24 05:29:24;;;;;;;;;;;18.90;74.70;;;;;;5025418;28;82005;-64
2021/05/24 05:31:50;;;;;;;;;;;19.00;74.80;;;;;;5025946;28;82326;-63
2021/05/24 05:34:15;;;;;;;;;;;18.90;74.70;;;;;;5025553;28;83880;-63
2021/05/24 05:36:41;;;;;;;;;;;18.90;74.80;;;;;;5022369;28;82693;-63
2021/05/24 05:39:07;;;;;;;;;;;18.90;74.80;;;;;;5021618;28;83593;-63
2021/05/24 05:41:34;;;;;;;;;;;18.90;74.80;;;;;;5022413;28;82130;-64
2021/05/24 05:43:59;;;;;;;;;;;18.90;74.80;;;;;;5024694;28;82179;-63
2021/05/24 05:46:25;;;;;;;;;;;18.90;74.90;;;;;;5023007;28;82138;-63
2021/05/24 05:48:50;;;;;;;;;;;18.90;75.40;;;;;;5024324;28;82167;-64
2021/05/24 05:51:16;;;;;;;;;;;18.90;74.80;;;;;;5024419;28;82119;-64
2021/05/24 05:53:41;;;;;;;;;;;19.00;74.80;;;;;;5025112;28;84350;-64
2021/05/24 05:56:07;;;;;;;;;;;19.00;74.80;;;;;;5025138;28;82230;-63
2021/05/24 05:58:33;;;;;;;;;;;19.00;74.70;;;;;;5021594;28;83159;-64
2021/05/24 06:01:03;;;;;;;;;;;19.00;74.80;;;;;;5021285;28;83095;-64
2021/05/24 06:03:29;;;;;;;;;;;18.90;74.70;;;;;;5022733;28;83030;-64
2021/05/24 06:05:54;;;;;;;;;;;19.00;74.70;;;;;;5026969;28;84804;-64
2021/05/24 06:08:20;;;;;;;;;;;18.90;74.70;;;;;;5025822;28;83576;-64
2021/05/24 06:10:45;;;;;;;;;;;18.90;74.70;;;;;;5022954;28;83959;-65
2021/05/24 06:13:11;;;;;;;;;;;19.00;74.70;;;;;;5021246;28;82925;-64
2021/05/24 06:15:37;;;;;;;;;;;18.90;74.60;;;;;;5021998;28;82115;-64
2021/05/24 06:18:02;;;;;;;;;;;19.00;74.50;;;;;;5023317;28;82153;-64
2021/05/24 06:20:28;;;;;;;;;;;18.90;74.50;;;;;;5024590;28;83601;-64
2021/05/24 06:22:53;;;;;;;;;;;19.00;74.60;;;;;;5025432;28;82228;-64
2021/05/24 06:25:19;;;;;;;;;;;19.00;74.60;;;;;;5022293;28;84613;-64
2021/05/24 06:27:45;;;;;;;;;;;19.00;74.60;;;;;;5022963;28;83205;-64
2021/05/24 06:30:10;;;;;;;;;;;18.90;74.50;;;;;;5021771;28;83429;-64
2021/05/24 06:32:36;;;;;;;;;;;18.90;74.50;;;;;;5021317;28;84801;-63
2021/05/24 06:35:02;;;;;;;;;;;19.00;74.50;;;;;;5022517;28;82145;-64
2021/05/24 06:37:27;;;;;;;;;;;19.00;74.50;;;;;;5023531;28;82432;-64
2021/05/24 06:39:53;;;;;;;;;;;19.00;74.50;;;;;;5024590;28;82272;-63
2021/05/24 06:42:19;;;;;;;;;;;19.00;74.60;;;;;;5023762;28;83843;-63
2021/05/24 06:44:45;;;;;;;;;;;19.00;74.60;;;;;;5022003;28;83919;-63
2021/05/24 06:47:11;;;;;;;;;;;19.00;74.60;;;;;;5021944;28;83236;-63
2021/05/24 06:49:36;;;;;;;;;;;19.00;74.60;;;;;;5023561;28;82100;-63
2021/05/24 06:52:03;;;;;;;;;;;19.00;74.70;;;;;;5021029;28;85027;-64
2021/05/24 06:54:29;;;;;;;;;;;19.00;74.80;;;;;;5021966;28;82148;-64
2021/05/24 06:56:54;;;;;;;;;;;19.00;74.70;;;;;;5022998;28;82898;-64
2021/05/24 06:59:20;;;;;;;;;;;19.00;74.80;;;;;;5023812;28;84373;-64
2021/05/24 07:01:45;;;;;;;;;;;19.00;74.90;;;;;;5024326;28;82094;-64
2021/05/24 07:04:11;;;;;;;;;;;19.00;74.80;;;;;;5024600;28;84201;-64
2021/05/24 07:06:37;;;;;;;;;;;19.00;74.80;;;;;;5022236;28;83056;-64
2021/05/24 07:09:03;;;;;;;;;;;19.00;74.90;;;;;;5020749;28;81372;-64
2021/05/24 07:11:28;;;;;;;;;;;19.00;74.80;;;;;;5023382;28;83070;-64
2021/05/24 07:13:54;;;;;;;;;;;19.00;74.90;;;;;;5020535;28;82102;-63
2021/05/24 07:16:19;;;;;;;;;;;19.00;74.80;;;;;;5021160;28;83553;-64
2021/05/24 07:18:45;;;;;;;;;;;19.00;75.50;;;;;;5021080;28;84854;-63
2021/05/24 07:21:10;;;;;;;;;;;19.00;75.00;;;;;;5021578;28;82107;-64
2021/05/24 07:23:36;;;;;;;;;;;19.00;75.00;;;;;;5022667;28;82158;-63
2021/05/24 07:26:01;;;;;;;;;;;19.00;75.00;;;;;;5023579;28;84850;-65
2021/05/24 07:28:27;;;;;;;;;;;19.00;75.00;;;;;;5023272;28;83140;-64
2021/05/24 07:30:53;;;;;;;;;;;19.00;75.10;;;;;;5019872;28;83567;-63
2021/05/24 07:33:18;;;;;;;;;;;19.00;75.10;;;;;;5023584;28;82433;-64
2021/05/24 07:35:44;;;;;;;;;;;19.00;75.10;;;;;;5020543;28;82118;-63
2021/05/24 07:38:10;;;;;;;;;;;19.00;75.10;;;;;;5021519;28;83522;-63
2021/05/24 07:40:36;;;;;;;;;;;19.00;75.20;;;;;;5021179;28;83086;-64
2021/05/24 07:43:01;;;;;;;;;;;19.10;75.30;;;;;;5022543;28;83078;-64
2021/05/24 07:45:27;;;;;;;;;;;19.00;75.30;;;;;;5023407;28;83313;-64
2021/05/24 07:47:53;;;;;;;;;;;19.10;75.30;;;;;;5022933;28;83633;-64
2021/05/24 07:50:19;;;;;;;;;;;19.10;75.40;;;;;;5019843;28;83929;-64
2021/05/24 07:52:45;;;;;;;;;;;19.00;75.30;;;;;;5025888;28;84271;-65
2021/05/24 07:55:11;;;;;;;;;;;19.00;75.20;;;;;;5024257;28;82103;-64
2021/05/24 07:57:38;;;;;;;;;;;19.00;75.20;;;;;;5023948;28;81682;-64
2021/05/24 08:00:05;;;;;;;;;;;19.00;75.20;;;;;;5021488;28;82170;-64
2021/05/24 08:02:31;;;;;;;;;;;19.00;75.20;;;;;;5019473;28;82476;-63
2021/05/24 08:04:56;;;;;;;;;;;19.10;75.30;;;;;;5019814;28;85707;-64
2021/05/24 08:07:22;;;;;;;;;;;19.10;75.30;;;;;;5022132;28;82147;-64
2021/05/24 08:09:49;;;;;;;;;;;19.10;75.40;;;;;;5023161;28;83416;-64
2021/05/24 08:12:15;;;;;;;;;;;19.10;75.50;;;;;;5021699;28;83414;-64
2021/05/24 08:14:41;;;;;;;;;;;19.10;75.40;;;;;;5025054;28;82134;-64
2021/05/24 08:17:06;;;;;;;;;;;19.10;75.40;;;;;;5022583;28;83385;-64
2021/05/24 08:19:32;;;;;;;;;;;19.10;75.40;;;;;;5023589;28;82111;-63
2021/05/24 08:21:57;;;;;;;;;;;19.10;75.40;;;;;;5020779;28;83038;-63
2021/05/24 08:24:23;;;;;;;;;;;19.10;75.40;;;;;;5019508;28;82721;-64
2021/05/24 08:26:48;;;;;;;;;;;19.10;75.40;;;;;;5024465;28;82091;-64
2021/05/24 08:29:14;;;;;;;;;;;19.10;75.40;;;;;;5025238;28;83020;-64
2021/05/24 08:31:42;;;;;;;;;;;19.10;75.40;;;;;;5026612;28;82498;-64
2021/05/24 08:34:08;;;;;;;;;;;19.10;75.40;;;;;;5024346;28;82113;-64
2021/05/24 08:36:33;;;;;;;;;;;19.10;75.60;;;;;;5026952;28;84163;-64
2021/05/24 08:38:59;;;;;;;;;;;19.20;75.70;;;;;;5025036;28;82166;-64
2021/05/24 08:41:25;;;;;;;;;;;19.20;75.70;;;;;;5025797;28;83764;-64
2021/05/24 08:43:50;;;;;;;;;;;19.10;75.70;;;;;;5023388;28;87570;-63
2021/05/24 08:46:16;;;;;;;;;;;19.20;75.80;;;;;;5021323;28;87645;-63
2021/05/24 08:48:43;;;;;;;;;;;19.20;75.80;;;;;;5019265;28;87128;-64
2021/05/24 08:51:11;;;;;;;;;;;19.20;75.80;;;;;;5018472;28;90326;-64
2021/05/24 08:53:37;;;;;;;;;;;19.20;75.90;;;;;;5022220;28;88088;-64
2021/05/24 08:56:03;;;;;;;;;;;19.20;75.90;;;;;;5022892;28;88365;-63
2021/05/24 08:58:29;;;;;;;;;;;19.20;75.70;;;;;;5024252;28;88147;-64
2021/05/24 09:00:55;;;;;;;;;;;19.20;75.90;;;;;;5020622;28;87243;-63
2021/05/24 09:03:21;;;;;;;;;;;19.30;76.10;;;;;;5019504;28;90038;-64
2021/05/24 09:05:47;;;;;;;;;;;19.30;76.00;;;;;;5018732;28;87117;-63
2021/05/24 09:08:13;;;;;;;;;;;19.30;76.10;;;;;;5019361;28;88454;-64
2021/05/24 09:10:41;;;;;;;;;;;19.30;76.20;;;;;;5020560;28;88699;-64
2021/05/24 09:13:14;;;;;;;;;;;19.30;76.20;;;;;;5018565;28;87071;-63
2021/05/24 09:15:40;;;;;;;;;;;19.30;76.20;;;;;;5022395;28;88048;-63
2021/05/24 09:18:07;;;;;;;;;;;19.30;76.10;;;;;;5020871;28;90715;-64
2021/05/24 09:20:34;;;;;;;;;;;19.30;76.00;;;;;;5025894;28;87117;-65
2021/05/24 09:23:03;;;;;;;;;;;19.30;76.00;;;;;;5021215;28;89176;-64
2021/05/24 09:25:47;;;;;;;;;;;19.40;76.10;;;;;;5018815;28;87132;-64
2021/05/24 09:28:31;;;;;;;;;;;19.40;76.20;;;;;;5022422;28;87378;-64
2021/05/24 09:31:01;;;;;;;;;;;19.40;76.30;;;;;;5018471;28;87979;-64
2021/05/24 09:33:27;;;;;;;;;;;19.40;76.30;;;;;;5021166;28;87170;-64
2021/05/24 09:35:52;;;;;;;;;;;19.40;76.40;;;;;;5021775;28;89393;-64
2021/05/24 09:38:19;;;;;;;;;;;19.40;76.40;;;;;;5021580;28;89644;-64
2021/05/24 09:40:51;;;;;;;;;;;19.40;76.40;;;;;;5022809;28;88531;-64
2021/05/24 09:43:17;;;;;;;;;;;19.50;76.40;;;;;;5023566;28;88060;-64
2021/05/24 09:45:43;;;;;;;;;;;19.50;76.40;;;;;;5022453;28;87128;-64
2021/05/24 09:48:08;;;;;;;;;;;19.50;76.20;;;;;;5021828;28;88568;-64
2021/05/24 09:50:36;;;;;;;;;;;19.50;76.00;;;;;;5022117;28;89419;-64
2021/05/24 09:53:02;;;;;;;;;;;19.50;76.10;;;;;;5018910;28;87185;-64
2021/05/24 09:55:29;;;;;;;;;;;19.50;76.10;;;;;;5018216;28;88209;-63
2021/05/24 09:57:55;;;;;;;;;;;19.60;76.10;;;;;;5021600;28;89360;-64
2021/05/24 10:00:28;;;;;;;;;;;19.50;76.20;;;;;;5021353;28;86448;-64
2021/05/24 10:02:55;;;;;;;;;;;19.60;76.20;;;;;;5022499;28;88703;-65
2021/05/24 10:05:21;;;;;;;;;;;19.60;76.30;;;;;;5021912;28;87168;-64
2021/05/24 10:07:46;;;;;;;;;;;19.60;76.20;;;;;;5021682;28;88178;-64
2021/05/24 10:10:14;;;;;;;;;;;19.60;76.20;;;;;;5019537;28;88388;-63
2021/05/24 10:12:40;;;;;;;;;;;19.60;76.30;;;;;;5022110;28;87148;-64
2021/05/24 10:15:06;;;;;;;;;;;19.70;76.40;;;;;;5021829;28;89032;-65
2021/05/24 10:17:33;;;;;;;;;;;19.60;76.40;;;;;;5021169;28;88510;-64
2021/05/24 10:19:58;;;;;;;;;;;19.70;76.40;;;;;;5020972;28;87142;-64
2021/05/24 10:22:24;;;;;;;;;;;19.60;76.30;;;;;;5022092;28;88166;-64
2021/05/24 10:24:50;;;;;;;;;;;19.70;76.50;;;;;;5022222;28;87745;-64
2021/05/24 10:27:16;;;;;;;;;;;19.70;76.50;;;;;;5017422;28;89630;-64
2021/05/24 10:29:42;;;;;;;;;;;19.70;76.50;;;;;;5017679;28;88562;-64
2021/05/24 10:32:08;;;;;;;;;;;19.80;76.50;;;;;;5018473;28;88160;-64
2021/05/24 10:34:37;;;;;;;;;;;19.80;76.50;;;;;;5019159;28;89278;-64
2021/05/24 10:37:05;;;;;;;;;;;19.80;76.50;;;;;;5020302;28;88623;-64
2021/05/24 10:39:42;;;;;;;;;;;19.80;77.00;;;;;;5018661;28;88061;-64
2021/05/24 10:42:11;;;;;;;;;;;19.80;76.30;;;;;;5019861;28;90245;-64
2021/05/24 10:44:38;;;;;;;;;;;19.80;76.00;;;;;;5021269;28;89846;-64
2021/05/24 10:47:17;;;;;;;;;;;19.90;76.00;;;;;;5021328;28;87148;-64
2021/05/24 10:50:12;;;;;;;;;;;19.90;75.90;;;;;;5021453;28;89350;-64
2021/05/24 10:52:38;;;;;;;;;;;19.90;75.80;;;;;;5008051;28;87275;-64
2021/05/24 10:55:22;;;;;;;;;;;20.00;76.00;;;;;;5017442;28;87474;-64
2021/05/24 10:57:57;;;;;;;;;;;20.00;75.90;;;;;;5019910;28;88502;-64
2021/05/24 11:00:22;;;;;;;;;;;20.00;75.90;;;;;;5016846;28;88991;-64
2021/05/24 11:02:53;;;;;;;;;;;20.00;75.90;;;;;;5016657;28;87312;-64
2021/05/24 11:05:21;;;;;;;;;;;20.00;75.70;;;;;;5016566;28;88239;-63
2021/05/24 11:07:48;;;;;;;;;;;20.00;75.30;;;;;;5020391;28;87199;-64
2021/05/24 11:10:13;;;;;;;;;;;20.10;75.50;;;;;;5022876;28;88575;-64
2021/05/24 11:12:40;;;;;;;;;;;20.10;75.40;;;;;;5021199;28;88725;-63
2021/05/24 11:15:07;;;;;;;;;;;20.10;75.50;;;;;;5021970;28;87413;-64
2021/05/24 11:17:52;;;;;;;;;;;20.10;75.30;;;;;;5021006;28;88074;-64
2021/05/24 11:20:35;;;;;;;;;;;20.10;75.40;;;;;;5012781;28;87172;-64
2021/05/24 11:26:16;;;;;;;;;;;20.10;75.50;;;;;;5014534;28;89236;-63
2021/05/24 11:28:43;;;;;;;;;;;20.20;75.50;;;;;;5020467;28;87247;-65
2021/05/24 11:31:13;;;;;;;;;;;20.20;75.50;;;;;;5018752;28;88768;-64
2021/05/24 11:33:40;;;;;;;;;;;20.20;75.40;;;;;;5020856;28;87729;-64
2021/05/24 11:36:07;;;;;;;;;;;20.20;75.50;;;;;;5018532;28;88817;-64
2021/05/24 11:38:33;;;;;;;;;;;20.20;75.60;;;;;;5019222;28;89230;-64
2021/05/24 11:41:08;;;;;;;;;;;20.20;75.60;;;;;;5019098;28;86441;-64
2021/05/24 11:43:34;;;;;;;;;;;20.20;75.70;;;;;;5019480;28;87128;-64
2021/05/24 11:46:03;;;;;;;;;;;20.20;75.80;;;;;;5019795;28;89600;-64
2021/05/24 11:48:35;;;;;;;;;;;20.20;75.80;;;;;;5016126;28;88086;-64
2021/05/24 11:51:03;;;;;;;;;;;20.20;75.90;;;;;;5020347;28;87947;-63
2021/05/24 11:53:29;;;;;;;;;;;20.30;75.90;;;;;;5018354;28;89681;-64
2021/05/24 11:56:05;;;;;;;;;;;20.30;75.80;;;;;;5022460;28;87105;-64
2021/05/24 11:58:30;;;;;;;;;;;20.30;75.70;;;;;;5019550;28;89408;-64
2021/05/24 12:01:05;;;;;;;;;;;20.40;75.70;;;;;;5016135;28;87756;-64
2021/05/24 12:03:30;;;;;;;;;;;20.40;75.50;;;;;;5018012;28;87144;-64
2021/05/24 12:05:56;;;;;;;;;;;20.40;75.60;;;;;;5019100;28;88902;-64
2021/05/24 12:08:22;;;;;;;;;;;20.40;75.60;;;;;;5020106;28;87154;-64
2021/05/24 12:10:57;;;;;;;;;;;20.40;75.40;;;;;;5020295;28;88015;-64
2021/05/24 12:13:23;;;;;;;;;;;20.40;75.40;;;;;;5015940;28;90882;-64
2021/05/24 12:15:48;;;;;;;;;;;20.40;75.40;;;;;;5018668;28;87180;-63
2021/05/24 12:18:14;;;;;;;;;;;20.50;75.30;;;;;;5016581;28;89141;-64
2021/05/24 12:20:39;;;;;;;;;;;20.50;75.10;;;;;;5018238;28;87111;-64
2021/05/24 12:23:05;;;;;;;;;;;20.50;75.30;;;;;;5019541;28;87164;-64
2021/05/24 12:25:30;;;;;;;;;;;20.50;75.10;;;;;;5019534;28;87281;-64
2021/05/24 12:27:56;;;;;;;;;;;20.50;75.00;;;;;;5016512;28;87912;-64
2021/05/24 12:30:30;;;;;;;;;;;20.60;75.20;;;;;;5016544;28;88889;-64
2021/05/24 12:33:02;;;;;;;;;;;20.60;75.10;;;;;;5018165;28;90118;-64
2021/05/24 12:35:36;;;;;;;;;;;20.60;75.00;;;;;;5017842;28;87114;-65
2021/05/24 12:38:09;;;;;;;;;;;20.70;75.00;;;;;;5019865;28;89086;-64
2021/05/24 12:40:35;;;;;;;;;;;20.60;75.00;;;;;;5018941;28;87129;-65
2021/05/24 12:43:01;;;;;;;;;;;20.70;75.10;;;;;;5019880;28;87768;-64
2021/05/24 12:45:28;;;;;;;;;;;20.70;75.10;;;;;;5019438;28;88487;-64
2021/05/24 12:48:11;;;;;;;;;;;20.70;75.10;;;;;;5019081;28;87135;-64
2021/05/24 12:50:37;;;;;;;;;;;20.70;75.10;;;;;;5017353;28;87788;-64
2021/05/24 12:53:09;;;;;;;;;;;20.70;75.10;;;;;;5018044;28;88566;-64
2021/05/24 12:55:35;;;;;;;;;;;20.70;75.30;;;;;;5017306;28;86443;-64
2021/05/24 12:58:07;;;;;;;;;;;20.70;75.10;;;;;;5017296;28;88665;-63
2021/05/24 13:00:39;;;;;;;;;;;20.70;75.10;;;;;;5017767;28;89295;-63
2021/05/24 13:03:04;;;;;;;;;;;20.80;75.10;;;;;;5014682;28;88197;-64
2021/05/24 13:05:30;;;;;;;;;;;20.80;75.10;;;;;;5016176;28;87370;-64
2021/05/24 13:07:56;;;;;;;;;;;20.90;75.20;;;;;;5017838;28;87167;-64
2021/05/24 13:10:38;;;;;;;;;;;20.90;75.20;;;;;;5017451;28;88800;-64
2021/05/24 13:13:21;;;;;;;;;;;20.90;75.10;;;;;;5018664;28;89429;-64
2021/05/24 13:15:53;;;;;;;;;;;20.90;74.90;;;;;;5019064;28;87141;-64
2021/05/24 13:19:13;;;;;;;;;;;20.90;74.90;;;;;;5018846;28;89296;-64
2021/05/24 13:26:53;;;;;;;;;;;21.00;75.00;;;;;;5017649;28;89661;-64
2021/05/24 13:29:29;;;;;;;;;;;21.10;75.00;;;;;;5020236;28;88128;-64
2021/05/24 13:31:55;;;;;;;;;;;21.10;75.00;;;;;;5019114;28;89234;-63
2021/05/24 13:34:31;;;;;;;;;;;21.10;75.10;;;;;;5019803;28;88898;-64
2021/05/24 13:36:57;;;;;;;;;;;21.20;75.10;;;;;;5020526;28;87111;-64
2021/05/24 13:39:24;;;;;;;;;;;21.20;75.00;;;;;;5020876;28;87581;-64
2021/05/24 13:41:51;;;;;;;;;;;21.20;75.20;;;;;;5018868;28;89646;-64
2021/05/24 13:44:17;;;;;;;;;;;21.20;75.10;;;;;;5021070;28;88032;-63
2021/05/24 13:46:43;;;;;;;;;;;21.20;75.20;;;;;;5025705;28;87959;-64
2021/05/24 13:49:10;;;;;;;;;;;21.30;75.20;;;;;;5022207;28;87160;-64
2021/05/24 13:51:37;;;;;;;;;;;21.30;75.30;;;;;;5022486;28;89063;-64
2021/05/24 13:54:03;;;;;;;;;;;21.30;75.20;;;;;;5020688;28;90738;-64
2021/05/24 13:56:29;;;;;;;;;;;21.40;75.30;;;;;;5022465;28;88603;-64
2021/05/24 13:58:54;;;;;;;;;;;21.40;75.30;;;;;;5019180;28;88776;-64
2021/05/24 14:01:20;;;;;;;;;;;21.40;75.30;;;;;;5017776;28;88261;-64
2021/05/24 14:03:45;;;;;;;;;;;21.40;75.40;;;;;;5019277;28;87112;-64
2021/05/24 14:06:12;;;;;;;;;;;21.50;76.10;;;;;;5022863;28;88561;-64
2021/05/24 14:08:37;;;;;;;;;;;21.50;75.50;;;;;;5020733;28;87201;-64
2021/05/24 14:11:03;;;;;;;;;;;21.50;75.60;;;;;;5022517;28;87461;-65
2021/05/24 14:13:29;;;;;;;;;;;21.50;75.60;;;;;;5021873;28;88701;-64
2021/05/24 14:15:55;;;;;;;;;;;21.50;75.70;;;;;;5019224;28;88130;-64
2021/05/24 14:18:20;;;;;;;;;;;21.50;75.60;;;;;;5016952;28;88091;-65
2021/05/24 14:20:46;;;;;;;;;;;21.50;75.60;;;;;;5017398;28;88161;-65
2021/05/24 14:23:11;;;;;;;;;;;21.50;75.50;;;;;;5017757;28;87158;-65